createdAt,value
2019-03-04T00:02:40.326Z,1.40
2019-03-04T00:07:45.505Z,1.20
2019-03-04T00:12:51.026Z,1.10
2019-03-04T00:17:56.214Z,1.53
2019-03-04T00:23:01.420Z,1.50
2019-03-04T00:28:06.678Z,0.90
2019-03-04T00:33:11.609Z,1.30
2019-03-04T00:38:16.817Z,1.20
2019-03-04T00:43:22.001Z,1.00
2019-03-04T00:48:27.202Z,0.80
2019-03-04T00:53:32.105Z,0.70
2019-03-04T00:58:37.585Z,0.83
2019-03-04T01:03:42.590Z,1.00
2019-03-04T01:08:47.517Z,0.80
2019-03-04T01:13:52.948Z,0.80
2019-03-04T01:18:58.177Z,0.50
2019-03-04T01:24:06.681Z,0.90
2019-03-04T01:29:11.589Z,0.73
2019-03-04T01:34:17.098Z,0.60
2019-03-04T01:39:21.944Z,0.63
2019-03-04T01:44:27.101Z,0.60
2019-03-04T01:49:32.538Z,0.90
2019-03-04T01:54:38.037Z,0.70
2019-03-04T01:59:42.851Z,0.63
2019-03-04T02:04:48.402Z,0.50
2019-03-04T02:09:54.004Z,0.50
2019-03-04T02:14:58.893Z,0.50
2019-03-04T02:20:03.875Z,0.90
2019-03-04T02:25:10.785Z,0.90
2019-03-04T02:30:19.458Z,0.60
2019-03-04T02:35:24.451Z,1.03
2019-03-04T02:40:29.805Z,1.23
2019-03-04T02:45:34.755Z,0.90
2019-03-04T02:50:39.985Z,0.83
2019-03-04T02:55:48.178Z,1.07
2019-03-04T03:00:53.449Z,1.40
2019-03-04T03:05:58.525Z,1.10
2019-03-04T03:11:03.538Z,1.37
2019-03-04T03:16:08.480Z,1.40
2019-03-04T03:21:13.211Z,1.20
2019-03-04T03:26:18.370Z,1.00
2019-03-04T03:31:23.597Z,1.30
2019-03-04T03:36:28.840Z,1.17
2019-03-04T03:41:34.060Z,1.10
2019-03-04T03:46:39.432Z,0.97
2019-03-04T03:51:44.422Z,0.60
2019-03-04T03:56:49.343Z,0.60
2019-03-04T04:01:54.508Z,0.83
2019-03-04T04:06:59.477Z,1.07
2019-03-04T04:12:04.386Z,0.67
2019-03-04T04:17:09.305Z,0.60
2019-03-04T04:22:14.271Z,0.60
2019-03-04T04:27:19.291Z,0.60
2019-03-04T04:32:24.466Z,0.40
2019-03-04T04:37:29.627Z,0.50
2019-03-04T04:42:34.831Z,0.70
2019-03-04T04:47:39.750Z,0.50
2019-03-04T04:52:44.994Z,0.60
2019-03-04T04:57:49.889Z,0.80
2019-03-04T05:02:55.053Z,0.60
2019-03-04T05:08:00.240Z,0.53
2019-03-04T05:13:05.532Z,0.80
2019-03-04T05:18:10.704Z,0.50
2019-03-04T05:23:15.525Z,0.60
2019-03-04T05:28:21.005Z,0.80
2019-03-04T05:33:26.185Z,0.57
2019-03-04T05:38:31.189Z,0.80
2019-03-04T05:43:36.750Z,0.40
2019-03-04T05:48:41.913Z,0.30
2019-03-04T05:53:46.810Z,0.30
2019-03-04T05:58:51.923Z,0.40
2019-03-04T06:03:59.677Z,0.20
2019-03-04T06:09:05.790Z,0.27
2019-03-04T06:14:13.434Z,0.30
2019-03-04T06:19:18.570Z,0.50
2019-03-04T06:24:23.712Z,0.47
2019-03-04T06:29:29.071Z,0.40
2019-03-04T06:34:34.224Z,0.43
2019-03-04T06:39:39.245Z,0.40
2019-03-04T06:44:44.649Z,0.50
2019-03-04T06:49:49.850Z,0.60
2019-03-04T06:55:17.181Z,0.77
2019-03-04T07:00:27.401Z,0.60
2019-03-04T07:05:48.929Z,0.40
2019-03-04T07:10:54.078Z,0.30
2019-03-04T07:15:59.048Z,0.37
2019-03-04T07:21:03.954Z,0.43
2019-03-04T07:26:09.043Z,0.53
2019-03-04T07:31:14.007Z,0.63
2019-03-04T07:36:18.885Z,0.60
2019-03-04T07:41:24.331Z,0.30
2019-03-04T07:46:30.321Z,0.53
2019-03-04T07:51:35.318Z,0.50
2019-03-04T07:56:40.530Z,0.67
2019-03-04T08:01:45.511Z,0.70
2019-03-04T08:06:50.657Z,0.70
2019-03-04T08:12:32.199Z,0.50
2019-03-04T08:17:37.372Z,0.77
2019-03-04T08:22:42.494Z,1.23
2019-03-04T08:27:47.508Z,0.77
2019-03-04T08:32:52.558Z,0.70
2019-03-04T08:37:57.701Z,0.80
2019-03-04T08:43:02.649Z,0.63
2019-03-04T08:48:07.581Z,0.63
2019-03-04T08:53:12.730Z,0.87
2019-03-04T08:58:17.750Z,0.60
2019-03-04T09:03:23.470Z,0.77
2019-03-04T09:08:28.549Z,0.83
2019-03-04T09:13:33.780Z,1.10
2019-03-04T09:18:38.652Z,0.80
2019-03-04T09:23:44.087Z,1.17
2019-03-04T09:28:49.304Z,0.87
2019-03-04T09:33:54.560Z,1.77
2019-03-04T09:38:59.437Z,1.00
2019-03-04T09:44:04.473Z,1.63
2019-03-04T09:49:09.766Z,0.80
2019-03-04T09:54:14.769Z,0.90
2019-03-04T09:59:19.812Z,0.93
2019-03-04T10:04:55.707Z,0.93
2019-03-04T10:10:45.057Z,0.90
2019-03-04T10:16:27.322Z,1.00
2019-03-04T10:22:22.702Z,1.53
2019-03-04T10:28:15.116Z,1.20
2019-03-04T10:33:48.359Z,1.10
2019-03-04T10:39:17.796Z,0.70
2019-03-04T10:44:57.872Z,0.67
2019-03-04T10:50:02.797Z,1.10
2019-03-04T10:55:09.135Z,0.93
2019-03-04T11:00:18.584Z,0.70
2019-03-04T11:05:23.766Z,0.40
2019-03-04T11:10:28.717Z,0.30
2019-03-04T11:15:33.941Z,0.30
2019-03-04T11:20:39.650Z,0.40
2019-03-04T11:25:44.718Z,0.40
2019-03-04T11:30:49.367Z,0.73
2019-03-04T11:35:54.220Z,0.70
2019-03-04T11:40:59.924Z,0.70
2019-03-04T11:46:05.168Z,1.10
2019-03-04T11:51:10.429Z,1.00
2019-03-04T11:56:15.721Z,0.57
2019-03-04T12:01:26.836Z,0.60
2019-03-04T12:06:32.122Z,0.60
2019-03-04T12:11:38.415Z,0.60
2019-03-04T12:16:43.773Z,1.10
2019-03-04T12:21:48.900Z,0.87
2019-03-04T12:26:54.169Z,0.93
2019-03-04T12:32:09.198Z,1.00
2019-03-04T12:37:14.389Z,1.10
2019-03-04T12:42:19.321Z,0.93
2019-03-04T12:47:24.306Z,0.97
2019-03-04T12:52:29.236Z,1.10
2019-03-04T12:57:34.193Z,1.10
2019-03-04T13:02:39.370Z,1.20
2019-03-04T13:07:44.416Z,1.00
2019-03-04T13:12:49.606Z,1.00
2019-03-04T13:17:54.501Z,0.90
2019-03-04T13:22:59.656Z,1.00
2019-03-04T13:28:08.487Z,0.97
2019-03-04T13:33:12.329Z,1.10
2019-03-04T13:38:17.495Z,0.97
2019-03-04T13:43:22.646Z,1.00
2019-03-04T13:48:27.635Z,0.90
2019-03-04T13:53:32.890Z,0.97
2019-03-04T13:58:38.317Z,1.20
2019-03-04T14:03:43.486Z,1.07
2019-03-04T14:08:48.664Z,1.23
2019-03-04T14:13:53.536Z,1.20
2019-03-04T14:18:58.844Z,1.07
2019-03-04T14:24:04.093Z,1.57
2019-03-04T14:29:09.069Z,1.27
2019-03-04T14:34:14.021Z,1.27
2019-03-04T14:39:19.221Z,1.77
2019-03-04T14:44:24.955Z,1.40
2019-03-04T14:49:29.989Z,1.10
2019-03-04T14:54:35.177Z,1.40
2019-03-04T14:59:40.649Z,1.40
2019-03-04T15:04:45.617Z,1.27
2019-03-04T15:09:51.180Z,1.10
2019-03-04T15:14:56.581Z,1.00
2019-03-04T15:20:08.730Z,1.23
2019-03-04T15:25:11.025Z,1.00
2019-03-04T15:30:16.365Z,1.07
2019-03-04T15:35:21.396Z,0.70
2019-03-04T15:40:26.876Z,0.70
2019-03-04T15:45:33.610Z,0.93
2019-03-04T15:50:38.605Z,0.60
2019-03-04T15:55:43.758Z,0.50
2019-03-04T16:00:49.042Z,0.60
2019-03-04T16:05:54.264Z,0.77
2019-03-04T16:10:59.930Z,0.60
2019-03-04T16:16:05.209Z,0.67
2019-03-04T16:21:10.441Z,0.90
2019-03-04T16:26:15.710Z,0.90
2019-03-04T16:31:20.696Z,1.00
2019-03-04T16:36:25.821Z,0.97
2019-03-04T16:41:30.748Z,0.90
2019-03-04T16:46:35.926Z,0.70
2019-03-04T16:51:41.162Z,0.80
2019-03-04T16:56:46.261Z,1.00
2019-03-04T17:01:51.534Z,1.03
2019-03-04T17:06:56.949Z,1.23
2019-03-04T17:12:03.589Z,0.87
2019-03-04T17:17:12.687Z,1.07
2019-03-04T17:22:17.836Z,0.90
2019-03-04T17:27:23.125Z,1.03
2019-03-04T17:32:28.507Z,1.00
2019-03-04T17:37:33.688Z,0.90
2019-03-04T17:42:39.027Z,1.10
2019-03-04T17:47:44.324Z,1.17
2019-03-04T17:52:49.496Z,1.60
2019-03-04T17:57:54.535Z,1.20
2019-03-04T18:03:00.100Z,1.23
2019-03-04T18:08:05.165Z,1.00
2019-03-04T18:13:11.327Z,1.20
2019-03-04T18:18:16.293Z,1.57
2019-03-04T18:23:21.585Z,1.30
2019-03-04T18:28:57.326Z,1.30
2019-03-04T18:34:52.824Z,0.97
2019-03-04T18:40:47.452Z,1.20
2019-03-04T18:46:21.150Z,1.50
2019-03-04T18:51:27.204Z,1.20
2019-03-04T18:56:32.457Z,1.43
2019-03-04T19:01:38.146Z,1.10
2019-03-04T19:06:43.633Z,1.37
2019-03-04T19:11:48.635Z,1.20
2019-03-04T19:16:54.341Z,1.30
2019-03-04T19:21:59.248Z,1.10
2019-03-04T19:27:04.939Z,0.90
2019-03-04T19:32:10.292Z,0.90
2019-03-04T19:37:15.187Z,1.00
2019-03-04T19:42:20.689Z,1.07
2019-03-04T19:47:26.280Z,1.00
2019-03-04T19:52:31.162Z,0.93
2019-03-04T19:57:36.588Z,1.13
2019-03-04T20:02:42.175Z,0.93
2019-03-04T20:07:48.041Z,1.10
2019-03-04T20:12:53.449Z,1.00
2019-03-04T20:17:58.621Z,1.33
2019-03-04T20:23:03.882Z,1.07
2019-03-04T20:28:08.803Z,1.03
2019-03-04T20:33:13.792Z,0.43
2019-03-04T20:38:20.791Z,0.30
2019-03-04T20:43:25.790Z,0.53
2019-03-04T20:48:30.897Z,0.70
2019-03-04T20:53:35.754Z,0.50
2019-03-04T20:58:41.407Z,0.60
2019-03-04T21:03:46.732Z,0.80
2019-03-04T21:08:51.892Z,0.80
2019-03-04T21:13:56.790Z,1.00
2019-03-04T21:19:02.030Z,1.03
2019-03-04T21:24:06.920Z,1.17
2019-03-04T21:29:39.920Z,1.10
2019-03-04T21:35:15.429Z,0.77
2019-03-04T21:40:32.369Z,1.13
2019-03-04T21:46:20.736Z,1.10
2019-03-04T21:52:00.096Z,1.10
2019-03-04T21:57:11.055Z,1.20
2019-03-04T22:02:20.841Z,0.80
2019-03-04T22:07:26.612Z,1.10
2019-03-04T22:12:31.579Z,0.80
2019-03-04T22:17:37.441Z,1.00
2019-03-04T22:22:42.785Z,1.07
2019-03-04T22:27:47.960Z,0.90
2019-03-04T22:32:53.863Z,1.10
2019-03-04T22:37:59.360Z,1.00
2019-03-04T22:43:04.981Z,1.60
2019-03-04T22:48:09.925Z,1.13
2019-03-04T22:53:15.175Z,1.20
2019-03-04T22:58:28.492Z,1.00
2019-03-04T23:03:27.773Z,1.30
2019-03-04T23:08:33.204Z,1.27
2019-03-04T23:13:55.367Z,1.47
2019-03-04T23:19:00.663Z,1.63
2019-03-04T23:24:06.589Z,1.53
2019-03-04T23:29:11.757Z,1.10
2019-03-04T23:34:18.638Z,1.50
2019-03-04T23:39:23.890Z,1.20
2019-03-04T23:44:29.117Z,1.30
2019-03-04T23:49:34.430Z,1.23
2019-03-04T23:54:39.961Z,1.23
2019-03-04T23:59:45.184Z,1.07
